createdAt,value
2019-03-28T00:01:38.561Z,2.70
2019-03-28T00:04:09.309Z,2.70
2019-03-28T00:06:39.801Z,2.60
2019-03-28T00:09:10.300Z,2.60
2019-03-28T00:11:40.788Z,2.60
2019-03-28T00:14:11.255Z,2.50
2019-03-28T00:16:42.510Z,2.50
2019-03-28T00:19:12.987Z,2.40
2019-03-28T00:21:44.284Z,2.40
2019-03-28T00:24:16.378Z,2.30
2019-03-28T00:26:46.870Z,2.40
2019-03-28T00:29:17.342Z,2.40
2019-03-28T00:31:48.137Z,2.40
2019-03-28T00:34:18.664Z,2.40
2019-03-28T00:36:49.161Z,2.30
2019-03-28T00:39:19.686Z,2.20
2019-03-28T00:41:50.179Z,2.30
2019-03-28T00:44:20.628Z,2.30
2019-03-28T00:46:51.131Z,2.20
2019-03-28T00:49:21.597Z,2.10
2019-03-28T00:51:52.097Z,2.00
2019-03-28T00:54:22.582Z,1.90
2019-03-28T00:56:53.324Z,1.90
2019-03-28T00:59:24.312Z,1.90
2019-03-28T01:01:54.832Z,1.90
2019-03-28T01:04:25.372Z,1.90
2019-03-28T01:06:55.856Z,1.80
2019-03-28T01:09:26.334Z,1.80
2019-03-28T01:11:56.811Z,1.70
2019-03-28T01:14:27.313Z,1.70
2019-03-28T01:16:58.272Z,1.80
2019-03-28T01:19:28.771Z,1.80
2019-03-28T01:21:59.228Z,1.70
2019-03-28T01:24:29.713Z,1.60
2019-03-28T01:27:00.480Z,1.70
2019-03-28T01:29:30.944Z,1.60
2019-03-28T01:32:02.165Z,1.60
2019-03-28T01:34:33.207Z,1.60
2019-03-28T01:37:04.200Z,1.60
2019-03-28T01:39:35.293Z,1.60
2019-03-28T01:42:06.207Z,1.50
2019-03-28T01:44:36.732Z,1.40
2019-03-28T01:47:07.239Z,1.40
2019-03-28T01:49:37.701Z,1.40
2019-03-28T01:52:08.194Z,1.40
2019-03-28T01:54:38.687Z,1.30
2019-03-28T01:57:12.190Z,1.30
2019-03-28T01:59:42.883Z,1.20
2019-03-28T02:02:13.426Z,1.20
2019-03-28T02:04:44.300Z,1.20
2019-03-28T02:07:15.079Z,1.30
2019-03-28T02:09:45.537Z,1.30
2019-03-28T02:12:16.038Z,1.20
2019-03-28T02:14:46.541Z,1.20
2019-03-28T02:17:17.088Z,1.20
2019-03-28T02:19:47.580Z,1.20
2019-03-28T02:22:19.325Z,1.20
2019-03-28T02:24:49.824Z,1.20
2019-03-28T02:27:24.383Z,1.20
2019-03-28T02:29:54.115Z,1.10
2019-03-28T02:32:24.612Z,1.00
2019-03-28T02:34:55.275Z,0.90
2019-03-28T02:37:25.836Z,0.90
2019-03-28T02:39:56.321Z,0.90
2019-03-28T02:42:27.810Z,0.90
2019-03-28T02:44:58.554Z,0.90
2019-03-28T02:47:29.050Z,0.80
2019-03-28T02:49:59.533Z,0.90
2019-03-28T02:52:31.734Z,0.90
2019-03-28T02:55:02.173Z,0.80
2019-03-28T02:57:40.934Z,0.80
2019-03-28T03:00:08.494Z,0.80
2019-03-28T03:02:39.108Z,0.80
2019-03-28T03:05:10.130Z,0.80
2019-03-28T03:07:41.747Z,0.80
2019-03-28T03:10:12.894Z,0.70
2019-03-28T03:12:43.986Z,0.80
2019-03-28T03:15:14.542Z,0.90
2019-03-28T03:17:45.009Z,0.90
2019-03-28T03:20:15.763Z,0.80
2019-03-28T03:22:46.322Z,0.80
2019-03-28T03:25:16.995Z,0.80
2019-03-28T03:27:57.730Z,0.80
2019-03-28T03:30:19.900Z,0.80
2019-03-28T03:32:50.377Z,0.70
2019-03-28T03:35:20.985Z,0.80
2019-03-28T03:37:51.462Z,0.70
2019-03-28T03:40:21.980Z,0.70
2019-03-28T03:42:52.569Z,0.60
2019-03-28T03:45:23.063Z,0.50
2019-03-28T03:47:53.569Z,0.50
2019-03-28T03:50:29.267Z,0.50
2019-03-28T03:52:59.941Z,0.50
2019-03-28T03:55:30.461Z,0.50
2019-03-28T03:58:15.636Z,0.50
2019-03-28T04:00:37.214Z,0.40
2019-03-28T04:03:07.800Z,0.40
2019-03-28T04:05:39.151Z,0.40
2019-03-28T04:08:12.656Z,0.30
2019-03-28T04:10:43.144Z,0.30
2019-03-28T04:13:13.669Z,0.30
2019-03-28T04:15:44.435Z,0.30
2019-03-28T04:18:21.723Z,0.30
2019-03-28T04:20:50.086Z,0.30
2019-03-28T04:23:20.535Z,0.30
2019-03-28T04:25:51.054Z,0.30
2019-03-28T04:28:31.410Z,0.40
2019-03-28T04:30:55.285Z,0.30
2019-03-28T04:33:25.784Z,0.30
2019-03-28T04:35:56.309Z,0.30
2019-03-28T04:38:26.802Z,0.30
2019-03-28T04:40:57.325Z,0.40
2019-03-28T04:43:27.818Z,0.30
2019-03-28T04:45:58.343Z,0.20
2019-03-28T04:48:28.831Z,0.20
2019-03-28T04:50:59.361Z,0.20
2019-03-28T04:53:29.845Z,0.20
2019-03-28T04:56:00.363Z,0.10
2019-03-28T04:58:43.444Z,0.10
2019-03-28T05:01:03.173Z,0.20
2019-03-28T05:03:33.668Z,0.20
2019-03-28T05:06:04.204Z,0.30
2019-03-28T05:08:34.719Z,0.20
2019-03-28T05:11:05.300Z,0.20
2019-03-28T05:13:35.799Z,0.10
2019-03-28T05:16:07.463Z,0.10
2019-03-28T05:18:37.953Z,0.20
2019-03-28T05:21:08.465Z,0.30
2019-03-28T05:23:38.994Z,0.40
2019-03-28T05:26:09.520Z,0.40
2019-03-28T05:28:39.997Z,0.50
2019-03-28T05:31:10.523Z,0.50
2019-03-28T05:33:42.602Z,0.50
2019-03-28T05:36:13.170Z,0.60
2019-03-28T05:38:43.641Z,0.70
2019-03-28T05:41:17.565Z,0.70
2019-03-28T05:43:48.187Z,0.70
2019-03-28T05:46:18.726Z,0.80
2019-03-28T05:48:49.215Z,0.90
2019-03-28T05:51:19.731Z,0.90
2019-03-28T05:53:50.223Z,1.00
2019-03-28T05:56:20.832Z,1.10
2019-03-28T05:58:51.322Z,1.10
2019-03-28T06:01:23.261Z,1.10
2019-03-28T06:03:53.750Z,1.20
2019-03-28T06:06:24.263Z,1.20
2019-03-28T06:08:54.751Z,1.30
2019-03-28T06:11:25.266Z,1.40
2019-03-28T06:13:55.747Z,1.50
2019-03-28T06:16:26.264Z,1.50
2019-03-28T06:18:56.767Z,1.60
2019-03-28T06:21:27.244Z,1.70
2019-03-28T06:23:57.788Z,1.80
2019-03-28T06:26:28.275Z,1.90
2019-03-28T06:28:58.789Z,2.10
2019-03-28T06:31:29.284Z,2.30
2019-03-28T06:34:00.472Z,2.40
2019-03-28T06:36:31.075Z,2.60
2019-03-28T06:39:01.605Z,2.70
2019-03-28T06:41:32.126Z,2.80
2019-03-28T06:44:02.662Z,2.90
2019-03-28T06:46:33.149Z,3.00
2019-03-28T06:49:03.670Z,3.00
2019-03-28T06:51:34.144Z,3.20
2019-03-28T06:54:04.745Z,3.20
2019-03-28T06:56:35.232Z,3.40
2019-03-28T06:59:05.752Z,3.60
2019-03-28T07:01:36.239Z,3.70
2019-03-28T07:04:06.742Z,3.90
2019-03-28T07:06:37.336Z,4.00
2019-03-28T07:09:09.662Z,4.20
2019-03-28T07:11:40.184Z,4.20
2019-03-28T07:14:10.707Z,4.20
2019-03-28T07:16:41.194Z,4.30
2019-03-28T07:19:11.712Z,4.30
2019-03-28T07:21:42.191Z,4.30
2019-03-28T07:24:12.716Z,4.30
2019-03-28T07:26:43.431Z,4.40
2019-03-28T07:29:14.021Z,4.60
2019-03-28T07:31:44.547Z,4.80
2019-03-28T07:34:15.037Z,4.90
2019-03-28T07:36:47.230Z,5.10
2019-03-28T07:39:19.243Z,5.30
2019-03-28T07:41:50.047Z,5.50
2019-03-28T07:44:20.582Z,5.60
2019-03-28T07:46:51.072Z,5.70
2019-03-28T07:49:21.643Z,5.80
2019-03-28T07:51:52.184Z,5.80
2019-03-28T07:54:22.698Z,5.80
2019-03-28T07:56:53.196Z,6.00
2019-03-28T07:59:23.720Z,6.20
2019-03-28T08:01:54.757Z,6.50
2019-03-28T08:04:26.546Z,6.70
2019-03-28T08:06:57.045Z,6.90
2019-03-28T08:09:36.425Z,7.10
2019-03-28T08:12:00.081Z,7.30
2019-03-28T08:14:30.615Z,7.40
2019-03-28T08:17:01.132Z,7.40
2019-03-28T08:19:33.823Z,7.40
2019-03-28T08:22:04.332Z,7.30
2019-03-28T08:24:34.860Z,7.50
2019-03-28T08:27:05.421Z,7.60
2019-03-28T08:29:35.941Z,7.70
2019-03-28T08:32:08.943Z,8.00
2019-03-28T08:34:39.792Z,8.10
2019-03-28T08:37:10.372Z,8.20
2019-03-28T08:39:44.450Z,8.20
2019-03-28T08:42:13.635Z,8.40
2019-03-28T08:44:44.156Z,8.60
2019-03-28T08:47:14.637Z,8.70
2019-03-28T08:49:45.155Z,8.90
2019-03-28T08:52:15.639Z,9.00
2019-03-28T08:54:46.160Z,9.20
2019-03-28T08:57:16.677Z,9.30
2019-03-28T09:02:35.274Z,9.40
2019-03-28T09:05:07.375Z,9.40
2019-03-28T09:07:37.864Z,9.60
2019-03-28T09:10:09.218Z,9.80
2019-03-28T09:21:06.353Z,10.20
2019-03-28T09:23:36.883Z,10.40
2019-03-28T09:26:07.438Z,10.50
2019-03-28T09:28:37.944Z,10.60
2019-03-28T09:31:19.157Z,10.80
2019-03-28T09:33:41.196Z,10.90
2019-03-28T09:36:11.743Z,10.90
2019-03-28T09:38:42.264Z,10.90
2019-03-28T09:41:12.797Z,10.90
2019-03-28T09:43:54.442Z,10.90
2019-03-28T09:46:15.759Z,10.80
2019-03-28T09:48:46.303Z,10.70
2019-03-28T09:51:18.461Z,10.60
2019-03-28T09:53:48.933Z,10.60
2019-03-28T09:56:19.447Z,10.70
2019-03-28T09:58:49.977Z,11.00
2019-03-28T10:01:20.483Z,11.40
2019-03-28T10:03:51.013Z,11.70
2019-03-28T10:06:21.498Z,11.80
2019-03-28T10:08:51.992Z,12.20
2019-03-28T10:11:22.453Z,12.50
2019-03-28T10:13:53.027Z,12.60
2019-03-28T10:16:23.591Z,12.70
2019-03-28T10:18:54.113Z,12.80
2019-03-28T10:21:24.651Z,12.90
2019-03-28T10:23:55.124Z,13.00
2019-03-28T10:26:25.638Z,13.40
2019-03-28T10:28:56.109Z,13.80
2019-03-28T10:31:26.598Z,14.40
2019-03-28T10:33:57.361Z,14.80
2019-03-28T10:36:28.012Z,14.90
2019-03-28T10:38:58.608Z,14.80
2019-03-28T10:41:29.144Z,14.50
2019-03-28T10:43:59.652Z,14.40
2019-03-28T10:46:30.165Z,14.10
2019-03-28T10:49:00.675Z,14.00
2019-03-28T10:51:31.193Z,13.90
2019-03-28T10:54:01.848Z,13.80
2019-03-28T10:56:32.327Z,13.70
2019-03-28T10:59:02.812Z,13.70
2019-03-28T11:01:48.063Z,13.60
2019-03-28T11:04:16.541Z,13.60
2019-03-28T11:06:47.037Z,13.60
2019-03-28T11:09:17.507Z,13.60
2019-03-28T11:11:48.014Z,13.60
2019-03-28T11:14:18.486Z,13.60
2019-03-28T11:16:48.981Z,13.70
2019-03-28T11:19:19.465Z,13.70
2019-03-28T11:21:50.028Z,13.70
2019-03-28T11:24:20.506Z,13.60
2019-03-28T11:26:51.004Z,13.60
2019-03-28T11:29:21.512Z,13.50
2019-03-28T11:31:52.698Z,13.60
2019-03-28T11:34:23.370Z,13.60
2019-03-28T11:36:53.937Z,13.70
2019-03-28T11:39:24.406Z,13.80
2019-03-28T11:41:54.921Z,13.80
2019-03-28T11:44:25.397Z,13.90
2019-03-28T11:46:55.898Z,13.90
2019-03-28T11:49:27.090Z,13.90
2019-03-28T11:51:57.668Z,13.90
2019-03-28T11:54:28.154Z,13.90
2019-03-28T11:56:58.647Z,13.80
2019-03-28T11:59:29.133Z,13.70
2019-03-28T12:02:08.851Z,13.70
2019-03-28T12:04:32.591Z,13.50
2019-03-28T12:07:03.078Z,13.40
2019-03-28T12:09:33.551Z,13.30
2019-03-28T12:12:04.048Z,13.10
2019-03-28T12:14:34.544Z,12.90
2019-03-28T12:17:05.004Z,12.80
2019-03-28T12:19:35.502Z,12.50
2019-03-28T12:22:05.973Z,12.30
2019-03-28T12:24:36.456Z,12.10
2019-03-28T12:27:06.916Z,12.10
2019-03-28T12:29:37.425Z,12.10
2019-03-28T12:32:13.819Z,12.10
2019-03-28T12:34:40.084Z,12.00
2019-03-28T12:37:10.905Z,12.00
2019-03-28T12:39:41.621Z,12.00
2019-03-28T12:42:12.084Z,11.90
2019-03-28T12:44:55.984Z,11.70
2019-03-28T12:47:14.779Z,11.50
2019-03-28T12:49:45.245Z,11.50
2019-03-28T12:52:15.737Z,11.40
2019-03-28T12:54:46.533Z,11.30
2019-03-28T12:57:17.043Z,11.20
2019-03-28T12:59:47.676Z,11.10
2019-03-28T13:02:28.599Z,11.10
2019-03-28T13:04:50.439Z,11.10
2019-03-28T13:07:20.991Z,11.10
2019-03-28T13:09:51.472Z,11.10
2019-03-28T13:12:21.934Z,11.00
2019-03-28T13:14:52.452Z,11.00
2019-03-28T13:17:22.980Z,11.00
2019-03-28T13:19:53.489Z,11.10
2019-03-28T13:22:23.948Z,11.20
2019-03-28T13:24:54.460Z,11.20
2019-03-28T13:27:24.917Z,11.10
2019-03-28T13:29:56.441Z,11.00
2019-03-28T13:32:40.560Z,10.80
2019-03-28T13:34:59.088Z,10.60
2019-03-28T13:37:29.566Z,10.70
2019-03-28T13:40:00.317Z,10.70
2019-03-28T13:42:30.881Z,10.80
2019-03-28T13:45:01.370Z,11.00
2019-03-28T13:47:31.862Z,11.40
2019-03-28T13:50:02.348Z,11.90
2019-03-28T13:52:32.797Z,12.10
2019-03-28T13:55:03.295Z,12.40
2019-03-28T13:57:34.655Z,12.70
2019-03-28T14:00:09.420Z,12.80
2019-03-28T14:02:39.872Z,12.90
2019-03-28T14:05:13.035Z,13.00
2019-03-28T14:07:43.868Z,13.10
2019-03-28T14:10:14.393Z,13.20
2019-03-28T14:12:44.899Z,13.30
2019-03-28T14:15:15.499Z,13.40
2019-03-28T14:17:45.995Z,13.30
2019-03-28T14:20:16.638Z,13.20
2019-03-28T14:22:47.094Z,13.50
2019-03-28T14:25:17.586Z,14.40
2019-03-28T14:27:48.048Z,14.90
2019-03-28T14:30:18.625Z,15.50
2019-03-28T14:32:53.649Z,16.30
2019-03-28T14:35:21.276Z,16.30
2019-03-28T14:37:51.817Z,15.90
2019-03-28T14:40:22.556Z,15.40
2019-03-28T14:42:53.110Z,15.10
2019-03-28T14:45:23.608Z,14.70
2019-03-28T14:47:54.068Z,14.50
2019-03-28T14:50:40.570Z,14.10
2019-03-28T14:53:11.182Z,14.10
2019-03-28T14:55:41.842Z,14.30
2019-03-28T14:58:12.330Z,14.80
2019-03-28T15:00:47.086Z,15.50
2019-03-28T15:03:26.378Z,16.20
2019-03-28T15:05:50.384Z,16.20
2019-03-28T15:08:20.960Z,15.80
2019-03-28T15:10:51.416Z,14.80
2019-03-28T15:13:22.013Z,14.30
2019-03-28T15:15:52.484Z,14.00
2019-03-28T15:18:22.976Z,13.40
2019-03-28T15:20:53.476Z,12.90
2019-03-28T15:23:24.031Z,12.80
2019-03-28T15:25:54.503Z,12.70
2019-03-28T15:28:25.047Z,12.80
2019-03-28T15:30:55.781Z,13.30
2019-03-28T15:33:38.883Z,13.60
2019-03-28T15:35:58.676Z,13.80
2019-03-28T15:38:31.328Z,14.10
2019-03-28T15:41:01.356Z,14.90
2019-03-28T15:43:31.862Z,15.40
2019-03-28T15:46:02.323Z,15.50
2019-03-28T15:48:32.849Z,15.70
2019-03-28T15:51:03.316Z,15.90
2019-03-28T15:53:33.805Z,15.60
2019-03-28T15:56:04.278Z,15.60
2019-03-28T15:58:34.762Z,15.80
2019-03-28T16:01:05.233Z,16.20
2019-03-28T16:03:35.722Z,17.00
2019-03-28T16:06:06.189Z,17.40
2019-03-28T16:08:36.684Z,17.80
2019-03-28T16:11:07.157Z,17.40
2019-03-28T16:13:37.840Z,16.40
2019-03-28T16:16:08.309Z,15.60
2019-03-28T16:18:39.533Z,14.80
2019-03-28T16:21:10.156Z,14.30
2019-03-28T16:23:40.651Z,13.70
2019-03-28T16:26:11.237Z,13.40
2019-03-28T16:28:41.706Z,13.10
2019-03-28T16:31:12.226Z,12.90
2019-03-28T16:33:43.355Z,12.70
2019-03-28T16:36:13.941Z,12.50
2019-03-28T16:38:45.702Z,12.30
2019-03-28T16:41:16.513Z,12.10
2019-03-28T16:43:46.985Z,12.00
2019-03-28T16:46:17.523Z,11.80
2019-03-28T16:48:48.013Z,11.70
2019-03-28T16:51:18.588Z,11.50
2019-03-28T16:53:49.071Z,11.40
2019-03-28T16:56:19.569Z,11.30
2019-03-28T16:58:50.044Z,11.10
2019-03-28T17:01:20.544Z,11.00
2019-03-28T17:03:52.320Z,10.90
2019-03-28T17:06:24.566Z,10.80
2019-03-28T17:08:55.177Z,10.60
2019-03-28T17:11:25.679Z,10.50
2019-03-28T17:13:56.226Z,10.40
2019-03-28T17:16:26.734Z,10.30
2019-03-28T17:18:57.202Z,10.20
2019-03-28T17:21:27.709Z,10.10
2019-03-28T17:23:58.235Z,9.90
2019-03-28T17:26:28.699Z,9.90
2019-03-28T17:28:59.233Z,9.80
2019-03-28T17:31:29.773Z,9.70
2019-03-28T17:34:00.237Z,9.70
2019-03-28T17:36:30.733Z,9.60
2019-03-28T17:39:01.215Z,9.50
2019-03-28T17:41:32.060Z,9.40
2019-03-28T17:44:02.711Z,9.30
2019-03-28T17:46:33.272Z,9.20
2019-03-28T17:49:23.156Z,9.20
2019-03-28T17:51:53.617Z,9.00
2019-03-28T17:54:24.075Z,9.00
2019-03-28T17:56:54.656Z,9.00
2019-03-28T17:59:25.087Z,9.00
2019-03-28T18:01:55.592Z,8.90
2019-03-28T18:04:26.063Z,8.90
2019-03-28T18:06:56.715Z,8.80
2019-03-28T18:09:27.342Z,8.80
2019-03-28T18:11:59.041Z,8.70
2019-03-28T18:14:30.474Z,8.70
2019-03-28T18:17:00.974Z,8.60
2019-03-28T18:19:31.442Z,8.50
2019-03-28T18:22:03.609Z,8.50
2019-03-28T18:24:34.157Z,8.40
2019-03-28T18:27:04.688Z,8.40
2019-03-28T18:29:36.068Z,8.40
2019-03-28T18:32:06.666Z,8.30
2019-03-28T18:34:37.122Z,8.30
2019-03-28T18:37:07.821Z,8.20
2019-03-28T18:39:38.323Z,8.20
2019-03-28T18:42:08.829Z,8.20
2019-03-28T18:44:39.313Z,8.20
2019-03-28T18:47:09.932Z,8.20
2019-03-28T18:49:40.455Z,8.20
2019-03-28T18:52:10.939Z,8.20
2019-03-28T18:54:41.400Z,8.20
2019-03-28T18:57:11.893Z,8.20
2019-03-28T18:59:42.363Z,8.30
2019-03-28T19:02:12.917Z,8.20
2019-03-28T19:04:43.376Z,8.20
2019-03-28T19:07:13.875Z,8.20
2019-03-28T19:09:44.409Z,8.20
2019-03-28T19:12:14.906Z,8.30
2019-03-28T19:14:46.292Z,8.30
2019-03-28T19:17:16.986Z,8.30
2019-03-28T19:19:47.439Z,8.30
2019-03-28T19:22:17.953Z,8.30
2019-03-28T19:24:48.415Z,8.40
2019-03-28T19:27:19.043Z,8.30
2019-03-28T19:29:49.599Z,8.40
2019-03-28T19:32:20.057Z,8.40
2019-03-28T19:34:50.623Z,8.30
2019-03-28T19:37:23.952Z,8.40
2019-03-28T19:39:55.190Z,8.30
2019-03-28T19:42:25.661Z,8.30
2019-03-28T19:44:56.424Z,8.30
2019-03-28T19:47:28.607Z,8.30
2019-03-28T19:49:59.067Z,8.30
2019-03-28T19:52:29.544Z,8.30
2019-03-28T19:55:00.049Z,8.30
2019-03-28T19:57:30.713Z,8.20
2019-03-28T20:00:01.237Z,8.10
2019-03-28T20:02:31.708Z,8.10
2019-03-28T20:05:02.270Z,8.00
2019-03-28T20:07:32.896Z,8.00
2019-03-28T20:10:15.824Z,7.90
2019-03-28T20:12:36.136Z,7.80
2019-03-28T20:15:10.742Z,7.70
2019-03-28T20:17:43.220Z,7.70
2019-03-28T20:20:14.555Z,7.60
2019-03-28T20:22:45.155Z,7.60
2019-03-28T20:25:15.679Z,7.60
2019-03-28T20:27:46.145Z,7.50
2019-03-28T20:30:17.151Z,7.40
2019-03-28T20:32:47.881Z,7.30
2019-03-28T20:35:18.524Z,7.30
2019-03-28T20:37:48.990Z,7.20
2019-03-28T20:40:20.823Z,7.10
2019-03-28T20:42:51.386Z,7.10
2019-03-28T20:45:22.186Z,7.00
2019-03-28T20:47:52.644Z,7.00
2019-03-28T20:50:24.943Z,7.00
2019-03-28T20:52:55.461Z,6.90
2019-03-28T20:55:25.907Z,6.90
2019-03-28T20:57:56.405Z,6.80
2019-03-28T21:00:40.612Z,6.80
2019-03-28T21:03:11.358Z,6.70
2019-03-28T21:05:42.270Z,6.70
2019-03-28T21:08:13.100Z,6.60
2019-03-28T21:10:43.615Z,6.60
2019-03-28T21:13:14.153Z,6.50
2019-03-28T21:15:45.744Z,6.50
2019-03-28T21:18:16.381Z,6.50
2019-03-28T21:20:46.888Z,6.40
2019-03-28T21:23:17.348Z,6.50
2019-03-28T21:25:48.929Z,6.40
2019-03-28T21:28:19.582Z,6.40
2019-03-28T21:30:50.147Z,6.30
2019-03-28T21:33:20.644Z,6.30
2019-03-28T21:35:51.101Z,6.30
2019-03-28T21:38:21.611Z,6.20
2019-03-28T21:40:52.064Z,6.20
2019-03-28T21:43:22.551Z,6.10
2019-03-28T21:45:53.020Z,6.00
2019-03-28T21:48:23.509Z,6.00
2019-03-28T21:50:54.071Z,6.00
2019-03-28T21:53:24.558Z,5.90
2019-03-28T21:55:57.387Z,5.90
2019-03-28T21:58:28.093Z,5.90
2019-03-28T22:00:58.572Z,5.80
2019-03-28T22:03:29.060Z,5.80
2019-03-28T22:05:59.517Z,5.70
2019-03-28T22:08:30.006Z,5.70
2019-03-28T22:11:00.465Z,5.70
2019-03-28T22:13:30.960Z,5.60
2019-03-28T22:16:01.425Z,5.60
2019-03-28T22:18:31.979Z,5.60
2019-03-28T22:21:02.445Z,5.60
2019-03-28T22:23:32.936Z,5.50
2019-03-28T22:26:05.008Z,5.50
2019-03-28T22:28:37.876Z,5.40
2019-03-28T22:31:07.707Z,5.40
2019-03-28T22:33:38.192Z,5.30
2019-03-28T22:36:08.712Z,5.20
2019-03-28T22:38:39.263Z,5.10
2019-03-28T22:41:09.723Z,5.10
2019-03-28T22:43:40.290Z,5.10
2019-03-28T22:46:10.746Z,5.10
2019-03-28T22:48:44.302Z,5.00
2019-03-28T22:51:13.423Z,5.00
2019-03-28T22:53:43.879Z,4.90
2019-03-28T22:56:14.385Z,4.90
2019-03-28T22:58:44.912Z,4.90
2019-03-28T23:01:15.816Z,4.80
2019-03-28T23:03:46.910Z,4.80
2019-03-28T23:06:17.644Z,4.70
2019-03-28T23:08:48.110Z,4.70
2019-03-28T23:11:18.593Z,4.60
2019-03-28T23:13:49.082Z,4.60
2019-03-28T23:16:19.576Z,4.50
2019-03-28T23:18:50.650Z,4.50
2019-03-28T23:21:21.110Z,4.40
2019-03-28T23:23:51.837Z,4.40
2019-03-28T23:26:22.364Z,4.40
2019-03-28T23:28:52.862Z,4.40
2019-03-28T23:31:23.317Z,4.40
2019-03-28T23:33:53.812Z,4.30
2019-03-28T23:36:24.271Z,4.30
2019-03-28T23:38:54.757Z,4.20
2019-03-28T23:41:25.979Z,4.20
2019-03-28T23:43:56.461Z,4.20
2019-03-28T23:46:26.917Z,4.10
2019-03-28T23:48:57.422Z,4.10
2019-03-28T23:51:27.904Z,4.10
2019-03-28T23:53:58.379Z,4.00
2019-03-28T23:56:30.098Z,4.00
2019-03-28T23:59:00.558Z,4.00
